sensor_id;sensor_type;location;lat;lon;timestamp;P1;durP1;ratioP1;P2;durP2;ratioP2
61373;SDS011;47242;48.158;-1.586;2022-12-22T05:30:54;30.75;;;5.68;;
61373;SDS011;47242;48.158;-1.586;2022-12-22T05:33:19;35.13;;;5.55;;
61373;SDS011;47242;48.158;-1.586;2022-12-22T05:35:45;40.00;;;5.45;;
61373;SDS011;47242;48.158;-1.586;2022-12-22T05:38:11;33.67;;;5.18;;
61373;SDS011;47242;48.158;-1.586;2022-12-22T05:40:37;29.88;;;5.32;;
61373;SDS011;47242;48.158;-1.586;2022-12-22T05:43:02;29.10;;;4.60;;
61373;SDS011;47242;48.158;-1.586;2022-12-22T05:45:28;34.38;;;5.22;;
61373;SDS011;47242;48.158;-1.586;2022-12-22T05:47:54;25.48;;;5.10;;
61373;SDS011;47242;48.158;-1.586;2022-12-22T05:50:21;30.38;;;4.93;;
61373;SDS011;47242;48.158;-1.586;2022-12-22T05:52:48;42.15;;;6.47;;
61373;SDS011;47242;48.158;-1.586;2022-12-22T05:55:14;28.42;;;5.60;;
61373;SDS011;47242;48.158;-1.586;2022-12-22T05:57:40;26.05;;;4.72;;
61373;SDS011;47242;48.158;-1.586;2022-12-22T06:00:07;31.05;;;5.75;;
61373;SDS011;47242;48.158;-1.586;2022-12-22T06:02:36;28.55;;;4.97;;
61373;SDS011;47242;48.158;-1.586;2022-12-22T06:05:03;21.40;;;4.28;;
61373;SDS011;47242;48.158;-1.586;2022-12-22T06:07:29;23.95;;;5.65;;
61373;SDS011;47242;48.158;-1.586;2022-12-22T06:09:54;38.25;;;5.38;;
61373;SDS011;47242;48.158;-1.586;2022-12-22T06:12:20;42.97;;;5.80;;
61373;SDS011;47242;48.158;-1.586;2022-12-22T06:14:45;29.55;;;5.07;;
61373;SDS011;47242;48.158;-1.586;2022-12-22T06:17:11;30.50;;;4.22;;
61373;SDS011;47242;48.158;-1.586;2022-12-22T06:19:37;37.47;;;6.43;;
61373;SDS011;47242;48.158;-1.586;2022-12-22T06:22:03;24.95;;;5.72;;
61373;SDS011;47242;48.158;-1.586;2022-12-22T06:24:28;26.42;;;4.80;;
61373;SDS011;47242;48.158;-1.586;2022-12-22T06:26:54;30.63;;;5.25;;
61373;SDS011;47242;48.158;-1.586;2022-12-22T06:29:19;21.98;;;4.35;;
61373;SDS011;47242;48.158;-1.586;2022-12-22T06:31:45;31.67;;;5.13;;
61373;SDS011;47242;48.158;-1.586;2022-12-22T06:34:11;28.67;;;5.35;;
61373;SDS011;47242;48.158;-1.586;2022-12-22T06:36:37;25.73;;;5.32;;
61373;SDS011;47242;48.158;-1.586;2022-12-22T06:39:03;25.02;;;4.65;;
61373;SDS011;47242;48.158;-1.586;2022-12-22T06:41:30;24.35;;;4.97;;
61373;SDS011;47242;48.158;-1.586;2022-12-22T06:44:14;35.22;;;5.00;;
61373;SDS011;47242;48.158;-1.586;2022-12-22T06:46:40;36.10;;;6.57;;
61373;SDS011;47242;48.158;-1.586;2022-12-22T06:49:05;26.38;;;5.00;;
61373;SDS011;47242;48.158;-1.586;2022-12-22T06:51:31;39.60;;;6.32;;
61373;SDS011;47242;48.158;-1.586;2022-12-22T06:53:57;32.85;;;6.18;;
61373;SDS011;47242;48.158;-1.586;2022-12-22T06:56:22;36.30;;;5.55;;
61373;SDS011;47242;48.158;-1.586;2022-12-22T06:58:48;32.33;;;5.82;;
61373;SDS011;47242;48.158;-1.586;2022-12-22T07:01:13;30.65;;;5.03;;
61373;SDS011;47242;48.158;-1.586;2022-12-22T07:03:39;34.42;;;5.97;;
61373;SDS011;47242;48.158;-1.586;2022-12-22T07:06:05;30.33;;;4.80;;
61373;SDS011;47242;48.158;-1.586;2022-12-22T07:08:31;27.98;;;4.72;;
61373;SDS011;47242;48.158;-1.586;2022-12-22T07:10:56;26.88;;;5.38;;
61373;SDS011;47242;48.158;-1.586;2022-12-22T07:13:22;31.58;;;5.60;;
61373;SDS011;47242;48.158;-1.586;2022-12-22T07:15:51;26.20;;;4.32;;
61373;SDS011;47242;48.158;-1.586;2022-12-22T07:18:17;23.33;;;5.75;;
61373;SDS011;47242;48.158;-1.586;2022-12-22T07:20:43;29.38;;;4.95;;
61373;SDS011;47242;48.158;-1.586;2022-12-22T07:23:09;28.15;;;6.38;;
61373;SDS011;47242;48.158;-1.586;2022-12-22T07:25:35;27.50;;;5.70;;
61373;SDS011;47242;48.158;-1.586;2022-12-22T07:28:00;28.85;;;4.63;;
61373;SDS011;47242;48.158;-1.586;2022-12-22T07:30:26;24.25;;;4.53;;
61373;SDS011;47242;48.158;-1.586;2022-12-22T07:32:52;39.22;;;5.57;;
61373;SDS011;47242;48.158;-1.586;2022-12-22T07:35:17;24.35;;;5.50;;
61373;SDS011;47242;48.158;-1.586;2022-12-22T07:37:43;30.20;;;4.35;;
61373;SDS011;47242;48.158;-1.586;2022-12-22T07:40:09;29.10;;;6.15;;
61373;SDS011;47242;48.158;-1.586;2022-12-22T07:42:35;22.25;;;4.90;;
61373;SDS011;47242;48.158;-1.586;2022-12-22T07:45:13;31.52;;;5.30;;
61373;SDS011;47242;48.158;-1.586;2022-12-22T07:47:43;45.97;;;5.28;;
61373;SDS011;47242;48.158;-1.586;2022-12-22T07:50:10;27.65;;;5.32;;
61373;SDS011;47242;48.158;-1.586;2022-12-22T07:52:55;25.17;;;5.53;;
61373;SDS011;47242;48.158;-1.586;2022-12-22T07:57:48;29.67;;;4.93;;
61373;SDS011;47242;48.158;-1.586;2022-12-22T08:00:14;30.33;;;5.20;;
61373;SDS011;47242;48.158;-1.586;2022-12-22T08:02:40;30.40;;;5.15;;
61373;SDS011;47242;48.158;-1.586;2022-12-22T08:05:07;30.05;;;5.25;;
61373;SDS011;47242;48.158;-1.586;2022-12-22T08:07:34;31.67;;;6.43;;
61373;SDS011;47242;48.158;-1.586;2022-12-22T08:09:59;26.80;;;5.28;;
61373;SDS011;47242;48.158;-1.586;2022-12-22T08:12:25;33.20;;;6.05;;
61373;SDS011;47242;48.158;-1.586;2022-12-22T08:14:51;38.75;;;5.50;;
61373;SDS011;47242;48.158;-1.586;2022-12-22T08:17:17;27.52;;;5.07;;
61373;SDS011;47242;48.158;-1.586;2022-12-22T08:19:43;34.22;;;5.55;;
61373;SDS011;47242;48.158;-1.586;2022-12-22T08:22:08;34.17;;;5.72;;
61373;SDS011;47242;48.158;-1.586;2022-12-22T08:24:35;30.98;;;5.05;;
61373;SDS011;47242;48.158;-1.586;2022-12-22T08:27:02;27.55;;;5.65;;
61373;SDS011;47242;48.158;-1.586;2022-12-22T08:29:32;41.92;;;5.75;;
61373;SDS011;47242;48.158;-1.586;2022-12-22T08:32:02;29.23;;;4.75;;
61373;SDS011;47242;48.158;-1.586;2022-12-22T08:34:28;39.25;;;5.75;;
61373;SDS011;47242;48.158;-1.586;2022-12-22T08:36:55;19.15;;;5.07;;
61373;SDS011;47242;48.158;-1.586;2022-12-22T08:39:23;39.90;;;5.63;;
61373;SDS011;47242;48.158;-1.586;2022-12-22T08:41:50;31.90;;;5.40;;
61373;SDS011;47242;48.158;-1.586;2022-12-22T08:44:20;39.83;;;7.28;;
61373;SDS011;47242;48.158;-1.586;2022-12-22T08:46:50;36.40;;;5.88;;
61373;SDS011;47242;48.158;-1.586;2022-12-22T08:49:18;32.33;;;4.82;;
61373;SDS011;47242;48.158;-1.586;2022-12-22T08:51:44;29.77;;;5.35;;
61373;SDS011;47242;48.158;-1.586;2022-12-22T08:54:10;21.75;;;4.10;;
61373;SDS011;47242;48.158;-1.586;2022-12-22T08:56:36;38.13;;;5.47;;
61373;SDS011;47242;48.158;-1.586;2022-12-22T08:59:02;31.30;;;4.85;;
61373;SDS011;47242;48.158;-1.586;2022-12-22T09:01:30;28.55;;;5.25;;
61373;SDS011;47242;48.158;-1.586;2022-12-22T09:03:57;40.40;;;5.85;;
61373;SDS011;47242;48.158;-1.586;2022-12-22T09:06:23;34.92;;;5.82;;
61373;SDS011;47242;48.158;-1.586;2022-12-22T09:08:56;22.13;;;4.55;;
61373;SDS011;47242;48.158;-1.586;2022-12-22T09:11:24;26.30;;;5.65;;
61373;SDS011;47242;48.158;-1.586;2022-12-22T09:13:51;20.17;;;3.92;;
61373;SDS011;47242;48.158;-1.586;2022-12-22T09:16:17;23.25;;;4.72;;
61373;SDS011;47242;48.158;-1.586;2022-12-22T09:18:44;34.03;;;5.45;;
61373;SDS011;47242;48.158;-1.586;2022-12-22T09:21:10;33.70;;;6.45;;
61373;SDS011;47242;48.158;-1.586;2022-12-22T09:23:36;21.48;;;4.63;;
61373;SDS011;47242;48.158;-1.586;2022-12-22T09:26:11;28.00;;;5.30;;
61373;SDS011;47242;48.158;-1.586;2022-12-22T09:28:39;44.33;;;5.22;;
61373;SDS011;47242;48.158;-1.586;2022-12-22T09:31:05;28.70;;;5.20;;
61373;SDS011;47242;48.158;-1.586;2022-12-22T09:33:32;25.85;;;5.03;;
61373;SDS011;47242;48.158;-1.586;2022-12-22T09:36:03;25.67;;;5.13;;
61373;SDS011;47242;48.158;-1.586;2022-12-22T09:38:30;34.13;;;6.20;;
61373;SDS011;47242;48.158;-1.586;2022-12-22T09:40:56;33.00;;;5.32;;
61373;SDS011;47242;48.158;-1.586;2022-12-22T09:43:25;25.85;;;4.05;;
61373;SDS011;47242;48.158;-1.586;2022-12-22T09:45:54;33.45;;;5.15;;
61373;SDS011;47242;48.158;-1.586;2022-12-22T09:48:24;31.08;;;6.38;;
61373;SDS011;47242;48.158;-1.586;2022-12-22T09:50:58;32.03;;;5.30;;
61373;SDS011;47242;48.158;-1.586;2022-12-22T09:53:23;26.52;;;4.55;;
61373;SDS011;47242;48.158;-1.586;2022-12-22T09:55:49;30.58;;;4.93;;
61373;SDS011;47242;48.158;-1.586;2022-12-22T09:58:18;36.40;;;5.93;;
61373;SDS011;47242;48.158;-1.586;2022-12-22T10:03:47;25.23;;;4.65;;
61373;SDS011;47242;48.158;-1.586;2022-12-22T10:06:31;34.55;;;5.03;;
61373;SDS011;47242;48.158;-1.586;2022-12-22T10:09:02;25.83;;;4.25;;
61373;SDS011;47242;48.158;-1.586;2022-12-22T10:11:38;32.63;;;5.45;;
61373;SDS011;47242;48.158;-1.586;2022-12-22T10:14:04;27.05;;;5.40;;
61373;SDS011;47242;48.158;-1.586;2022-12-22T10:16:29;37.50;;;4.95;;
61373;SDS011;47242;48.158;-1.586;2022-12-22T10:18:59;29.10;;;5.50;;
61373;SDS011;47242;48.158;-1.586;2022-12-22T10:21:33;28.63;;;4.40;;
61373;SDS011;47242;48.158;-1.586;2022-12-22T10:23:59;24.70;;;5.35;;
61373;SDS011;47242;48.158;-1.586;2022-12-22T10:26:26;36.97;;;6.20;;
61373;SDS011;47242;48.158;-1.586;2022-12-22T10:29:02;27.30;;;5.45;;
61373;SDS011;47242;48.158;-1.586;2022-12-22T10:31:32;24.58;;;4.90;;
61373;SDS011;47242;48.158;-1.586;2022-12-22T10:34:10;28.05;;;4.85;;
61373;SDS011;47242;48.158;-1.586;2022-12-22T10:36:38;30.55;;;4.22;;
61373;SDS011;47242;48.158;-1.586;2022-12-22T10:39:06;44.13;;;5.93;;
61373;SDS011;47242;48.158;-1.586;2022-12-22T10:41:41;26.00;;;4.30;;
61373;SDS011;47242;48.158;-1.586;2022-12-22T10:46:45;19.60;;;4.13;;
61373;SDS011;47242;48.158;-1.586;2022-12-22T11:04:45;29.58;;;5.05;;
61373;SDS011;47242;48.158;-1.586;2022-12-22T11:07:12;21.98;;;5.68;;
61373;SDS011;47242;48.158;-1.586;2022-12-22T11:09:37;26.73;;;4.40;;
61373;SDS011;47242;48.158;-1.586;2022-12-22T11:12:12;29.63;;;4.63;;
61373;SDS011;47242;48.158;-1.586;2022-12-22T11:15:42;31.48;;;5.70;;
61373;SDS011;47242;48.158;-1.586;2022-12-22T11:17:59;22.10;;;5.05;;
61373;SDS011;47242;48.158;-1.586;2022-12-22T11:23:04;26.17;;;4.85;;
61373;SDS011;47242;48.158;-1.586;2022-12-22T11:31:22;29.75;;;4.63;;
61373;SDS011;47242;48.158;-1.586;2022-12-22T11:45:46;21.38;;;3.80;;
61373;SDS011;47242;48.158;-1.586;2022-12-22T11:50:51;12.80;;;3.65;;
61373;SDS011;47242;48.158;-1.586;2022-12-22T12:04:19;19.23;;;4.72;;
61373;SDS011;47242;48.158;-1.586;2022-12-22T12:07:19;16.98;;;3.20;;
61373;SDS011;47242;48.158;-1.586;2022-12-22T12:26:40;10.52;;;2.50;;
61373;SDS011;47242;48.158;-1.586;2022-12-22T12:29:23;6.53;;;2.60;;
61373;SDS011;47242;48.158;-1.586;2022-12-22T12:32:00;7.47;;;1.70;;
61373;SDS011;47242;48.158;-1.586;2022-12-22T12:34:28;5.63;;;1.95;;
61373;SDS011;47242;48.158;-1.586;2022-12-22T12:42:44;6.35;;;1.35;;
61373;SDS011;47242;48.158;-1.586;2022-12-22T12:45:30;8.30;;;1.70;;
61373;SDS011;47242;48.158;-1.586;2022-12-22T12:50:45;3.30;;;1.55;;
61373;SDS011;47242;48.158;-1.586;2022-12-22T12:53:23;2.90;;;1.00;;
61373;SDS011;47242;48.158;-1.586;2022-12-22T12:55:51;5.35;;;1.55;;
61373;SDS011;47242;48.158;-1.586;2022-12-22T13:01:10;1.90;;;0.75;;
61373;SDS011;47242;48.158;-1.586;2022-12-22T13:09:15;6.75;;;1.13;;
61373;SDS011;47242;48.158;-1.586;2022-12-22T13:11:42;2.58;;;1.10;;
61373;SDS011;47242;48.158;-1.586;2022-12-22T13:14:08;3.78;;;1.20;;
61373;SDS011;47242;48.158;-1.586;2022-12-22T13:16:35;4.03;;;1.02;;
61373;SDS011;47242;48.158;-1.586;2022-12-22T13:19:04;2.65;;;1.30;;
61373;SDS011;47242;48.158;-1.586;2022-12-22T13:21:40;3.65;;;1.50;;
61373;SDS011;47242;48.158;-1.586;2022-12-22T13:26:37;3.38;;;1.48;;
61373;SDS011;47242;48.158;-1.586;2022-12-22T13:31:44;2.83;;;1.10;;
61373;SDS011;47242;48.158;-1.586;2022-12-22T13:36:49;1.52;;;0.80;;
61373;SDS011;47242;48.158;-1.586;2022-12-22T13:39:15;2.63;;;0.90;;
61373;SDS011;47242;48.158;-1.586;2022-12-22T13:41:42;0.73;;;0.50;;
61373;SDS011;47242;48.158;-1.586;2022-12-22T13:44:13;1.83;;;0.70;;
61373;SDS011;47242;48.158;-1.586;2022-12-22T13:46:42;1.27;;;0.60;;
61373;SDS011;47242;48.158;-1.586;2022-12-22T13:49:09;3.08;;;0.88;;
61373;SDS011;47242;48.158;-1.586;2022-12-22T13:51:39;2.65;;;0.70;;
61373;SDS011;47242;48.158;-1.586;2022-12-22T13:54:11;1.83;;;1.00;;
61373;SDS011;47242;48.158;-1.586;2022-12-22T13:56:43;2.47;;;0.70;;
61373;SDS011;47242;48.158;-1.586;2022-12-22T14:04:33;1.35;;;0.68;;
61373;SDS011;47242;48.158;-1.586;2022-12-22T14:07:16;1.80;;;0.70;;
61373;SDS011;47242;48.158;-1.586;2022-12-22T14:09:47;3.15;;;1.23;;
61373;SDS011;47242;48.158;-1.586;2022-12-22T14:12:18;1.55;;;0.88;;
61373;SDS011;47242;48.158;-1.586;2022-12-22T14:14:47;3.20;;;0.85;;
61373;SDS011;47242;48.158;-1.586;2022-12-22T14:17:24;1.83;;;0.70;;
61373;SDS011;47242;48.158;-1.586;2022-12-22T14:19:59;1.80;;;1.15;;
61373;SDS011;47242;48.158;-1.586;2022-12-22T14:22:36;1.45;;;0.80;;
61373;SDS011;47242;48.158;-1.586;2022-12-22T14:25:12;2.20;;;0.77;;
61373;SDS011;47242;48.158;-1.586;2022-12-22T14:27:54;1.67;;;0.90;;
61373;SDS011;47242;48.158;-1.586;2022-12-22T14:30:22;1.38;;;0.95;;
61373;SDS011;47242;48.158;-1.586;2022-12-22T14:32:51;1.70;;;0.82;;
61373;SDS011;47242;48.158;-1.586;2022-12-22T14:40:41;1.55;;;0.70;;
61373;SDS011;47242;48.158;-1.586;2022-12-22T14:45:43;2.25;;;1.10;;
61373;SDS011;47242;48.158;-1.586;2022-12-22T14:48:15;2.17;;;1.05;;
61373;SDS011;47242;48.158;-1.586;2022-12-22T14:50:48;1.40;;;0.93;;
61373;SDS011;47242;48.158;-1.586;2022-12-22T14:53:21;3.00;;;1.30;;
61373;SDS011;47242;48.158;-1.586;2022-12-22T14:55:49;1.58;;;1.02;;
61373;SDS011;47242;48.158;-1.586;2022-12-22T14:58:32;2.20;;;1.42;;
61373;SDS011;47242;48.158;-1.586;2022-12-22T15:01:22;3.05;;;1.10;;
61373;SDS011;47242;48.158;-1.586;2022-12-22T15:03:59;2.90;;;1.20;;
61373;SDS011;47242;48.158;-1.586;2022-12-22T15:06:38;2.83;;;1.00;;
61373;SDS011;47242;48.158;-1.586;2022-12-22T15:11:50;2.03;;;0.90;;
61373;SDS011;47242;48.158;-1.586;2022-12-22T15:14:19;1.20;;;0.70;;
61373;SDS011;47242;48.158;-1.586;2022-12-22T15:16:47;1.92;;;0.90;;
61373;SDS011;47242;48.158;-1.586;2022-12-22T15:19:13;2.92;;;1.27;;
61373;SDS011;47242;48.158;-1.586;2022-12-22T15:21:42;3.22;;;1.10;;
61373;SDS011;47242;48.158;-1.586;2022-12-22T15:24:11;2.50;;;1.20;;
61373;SDS011;47242;48.158;-1.586;2022-12-22T15:26:39;2.33;;;1.00;;
61373;SDS011;47242;48.158;-1.586;2022-12-22T15:29:05;1.70;;;0.90;;
61373;SDS011;47242;48.158;-1.586;2022-12-22T15:31:31;2.55;;;1.00;;
61373;SDS011;47242;48.158;-1.586;2022-12-22T15:34:01;1.65;;;1.02;;
61373;SDS011;47242;48.158;-1.586;2022-12-22T15:36:29;1.85;;;0.90;;
61373;SDS011;47242;48.158;-1.586;2022-12-22T15:38:54;3.20;;;1.17;;
61373;SDS011;47242;48.158;-1.586;2022-12-22T15:41:20;3.15;;;1.30;;
61373;SDS011;47242;48.158;-1.586;2022-12-22T15:43:46;2.10;;;1.10;;
61373;SDS011;47242;48.158;-1.586;2022-12-22T15:46:15;1.60;;;0.57;;
61373;SDS011;47242;48.158;-1.586;2022-12-22T15:48:42;2.30;;;0.90;;
61373;SDS011;47242;48.158;-1.586;2022-12-22T15:51:19;1.75;;;0.90;;
61373;SDS011;47242;48.158;-1.586;2022-12-22T15:53:52;2.05;;;0.73;;
61373;SDS011;47242;48.158;-1.586;2022-12-22T15:56:19;3.88;;;0.90;;
61373;SDS011;47242;48.158;-1.586;2022-12-22T15:58:47;3.67;;;1.50;;
61373;SDS011;47242;48.158;-1.586;2022-12-22T16:01:13;2.95;;;1.20;;
61373;SDS011;47242;48.158;-1.586;2022-12-22T16:03:39;1.85;;;0.80;;
61373;SDS011;47242;48.158;-1.586;2022-12-22T16:06:05;2.33;;;0.80;;
61373;SDS011;47242;48.158;-1.586;2022-12-22T16:08:34;2.22;;;0.90;;
61373;SDS011;47242;48.158;-1.586;2022-12-22T16:11:04;1.83;;;0.87;;
61373;SDS011;47242;48.158;-1.586;2022-12-22T16:13:32;4.03;;;1.00;;
61373;SDS011;47242;48.158;-1.586;2022-12-22T16:16:00;2.65;;;0.75;;
61373;SDS011;47242;48.158;-1.586;2022-12-22T16:18:33;5.05;;;1.10;;
61373;SDS011;47242;48.158;-1.586;2022-12-22T16:21:02;3.40;;;0.85;;
61373;SDS011;47242;48.158;-1.586;2022-12-22T16:23:36;1.58;;;0.70;;
61373;SDS011;47242;48.158;-1.586;2022-12-22T16:26:03;2.55;;;1.63;;
61373;SDS011;47242;48.158;-1.586;2022-12-22T16:28:29;4.10;;;0.80;;
61373;SDS011;47242;48.158;-1.586;2022-12-22T16:30:57;1.55;;;0.93;;
61373;SDS011;47242;48.158;-1.586;2022-12-22T16:33:23;2.97;;;1.00;;
61373;SDS011;47242;48.158;-1.586;2022-12-22T16:35:49;2.35;;;0.93;;
61373;SDS011;47242;48.158;-1.586;2022-12-22T16:38:15;2.67;;;1.60;;
61373;SDS011;47242;48.158;-1.586;2022-12-22T16:40:42;1.00;;;0.70;;
61373;SDS011;47242;48.158;-1.586;2022-12-22T16:45:42;2.47;;;1.10;;
61373;SDS011;47242;48.158;-1.586;2022-12-22T16:48:19;2.55;;;1.02;;
61373;SDS011;47242;48.158;-1.586;2022-12-22T16:50:51;1.83;;;0.80;;
61373;SDS011;47242;48.158;-1.586;2022-12-22T16:53:17;2.58;;;1.05;;
61373;SDS011;47242;48.158;-1.586;2022-12-22T16:55:45;3.03;;;0.80;;
61373;SDS011;47242;48.158;-1.586;2022-12-22T16:58:11;1.88;;;1.00;;
61373;SDS011;47242;48.158;-1.586;2022-12-22T17:00:37;1.95;;;0.88;;
61373;SDS011;47242;48.158;-1.586;2022-12-22T17:03:12;4.40;;;0.90;;
61373;SDS011;47242;48.158;-1.586;2022-12-22T17:05:41;2.80;;;0.75;;
61373;SDS011;47242;48.158;-1.586;2022-12-22T17:08:25;2.78;;;0.80;;
61373;SDS011;47242;48.158;-1.586;2022-12-22T17:10:54;2.88;;;0.85;;
61373;SDS011;47242;48.158;-1.586;2022-12-22T17:13:22;1.52;;;0.82;;
61373;SDS011;47242;48.158;-1.586;2022-12-22T17:15:48;3.35;;;0.93;;
61373;SDS011;47242;48.158;-1.586;2022-12-22T17:18:21;1.42;;;0.75;;
61373;SDS011;47242;48.158;-1.586;2022-12-22T17:20:49;2.22;;;1.02;;
61373;SDS011;47242;48.158;-1.586;2022-12-22T17:23:27;3.08;;;1.08;;
61373;SDS011;47242;48.158;-1.586;2022-12-22T17:25:54;1.90;;;0.82;;
61373;SDS011;47242;48.158;-1.586;2022-12-22T17:28:21;3.38;;;1.30;;
61373;SDS011;47242;48.158;-1.586;2022-12-22T17:30:47;1.80;;;0.88;;
61373;SDS011;47242;48.158;-1.586;2022-12-22T17:33:16;2.35;;;0.88;;
61373;SDS011;47242;48.158;-1.586;2022-12-22T17:35:42;1.60;;;1.03;;
61373;SDS011;47242;48.158;-1.586;2022-12-22T17:38:19;1.63;;;0.82;;
61373;SDS011;47242;48.158;-1.586;2022-12-22T17:40:46;6.20;;;1.30;;
61373;SDS011;47242;48.158;-1.586;2022-12-22T17:43:13;3.78;;;0.80;;
61373;SDS011;47242;48.158;-1.586;2022-12-22T17:45:41;2.13;;;1.10;;
61373;SDS011;47242;48.158;-1.586;2022-12-22T17:48:09;4.97;;;1.38;;
61373;SDS011;47242;48.158;-1.586;2022-12-22T17:50:36;3.70;;;1.20;;
61373;SDS011;47242;48.158;-1.586;2022-12-22T17:53:05;2.90;;;1.10;;
61373;SDS011;47242;48.158;-1.586;2022-12-22T17:55:34;4.00;;;1.27;;
61373;SDS011;47242;48.158;-1.586;2022-12-22T17:58:00;2.60;;;1.40;;
61373;SDS011;47242;48.158;-1.586;2022-12-22T18:00:26;5.65;;;1.67;;
61373;SDS011;47242;48.158;-1.586;2022-12-22T18:02:54;4.40;;;1.38;;
61373;SDS011;47242;48.158;-1.586;2022-12-22T18:05:21;7.50;;;2.03;;
61373;SDS011;47242;48.158;-1.586;2022-12-22T18:07:52;3.45;;;1.15;;
61373;SDS011;47242;48.158;-1.586;2022-12-22T18:12:48;4.72;;;1.83;;
61373;SDS011;47242;48.158;-1.586;2022-12-22T18:15:15;2.88;;;1.10;;
61373;SDS011;47242;48.158;-1.586;2022-12-22T18:17:41;5.70;;;1.60;;
61373;SDS011;47242;48.158;-1.586;2022-12-22T18:20:11;2.88;;;0.85;;
61373;SDS011;47242;48.158;-1.586;2022-12-22T18:22:38;4.75;;;1.50;;
61373;SDS011;47242;48.158;-1.586;2022-12-22T18:25:08;3.15;;;1.48;;
61373;SDS011;47242;48.158;-1.586;2022-12-22T18:27:41;3.70;;;1.25;;
61373;SDS011;47242;48.158;-1.586;2022-12-22T18:30:17;3.55;;;1.27;;
61373;SDS011;47242;48.158;-1.586;2022-12-22T18:32:48;4.25;;;1.60;;
61373;SDS011;47242;48.158;-1.586;2022-12-22T18:35:15;6.43;;;1.52;;
61373;SDS011;47242;48.158;-1.586;2022-12-22T18:37:41;3.63;;;1.40;;
61373;SDS011;47242;48.158;-1.586;2022-12-22T18:40:26;3.35;;;1.70;;
61373;SDS011;47242;48.158;-1.586;2022-12-22T18:43:12;3.28;;;1.27;;
61373;SDS011;47242;48.158;-1.586;2022-12-22T18:45:38;6.47;;;1.60;;
61373;SDS011;47242;48.158;-1.586;2022-12-22T18:48:04;5.30;;;1.30;;
61373;SDS011;47242;48.158;-1.586;2022-12-22T18:50:30;3.08;;;1.20;;
61373;SDS011;47242;48.158;-1.586;2022-12-22T18:52:58;2.67;;;0.80;;
61373;SDS011;47242;48.158;-1.586;2022-12-22T18:55:27;5.55;;;1.55;;
61373;SDS011;47242;48.158;-1.586;2022-12-22T18:57:54;2.67;;;1.50;;
61373;SDS011;47242;48.158;-1.586;2022-12-22T19:00:39;2.30;;;1.50;;
61373;SDS011;47242;48.158;-1.586;2022-12-22T19:03:12;4.00;;;1.55;;
61373;SDS011;47242;48.158;-1.586;2022-12-22T19:05:41;3.53;;;1.70;;
61373;SDS011;47242;48.158;-1.586;2022-12-22T19:08:12;3.58;;;1.42;;
61373;SDS011;47242;48.158;-1.586;2022-12-22T19:10:46;1.70;;;1.20;;
61373;SDS011;47242;48.158;-1.586;2022-12-22T19:13:29;2.50;;;1.20;;
61373;SDS011;47242;48.158;-1.586;2022-12-22T19:16:01;3.53;;;1.10;;
61373;SDS011;47242;48.158;-1.586;2022-12-22T19:18:27;3.55;;;1.30;;
61373;SDS011;47242;48.158;-1.586;2022-12-22T19:20:55;4.30;;;1.73;;
61373;SDS011;47242;48.158;-1.586;2022-12-22T19:23:21;6.78;;;1.58;;
61373;SDS011;47242;48.158;-1.586;2022-12-22T19:25:49;7.10;;;1.60;;
61373;SDS011;47242;48.158;-1.586;2022-12-22T19:28:21;5.10;;;1.40;;
61373;SDS011;47242;48.158;-1.586;2022-12-22T19:31:05;3.97;;;1.45;;
61373;SDS011;47242;48.158;-1.586;2022-12-22T19:33:41;4.95;;;1.65;;
61373;SDS011;47242;48.158;-1.586;2022-12-22T19:36:18;3.17;;;1.60;;
61373;SDS011;47242;48.158;-1.586;2022-12-22T19:38:46;3.90;;;1.60;;
61373;SDS011;47242;48.158;-1.586;2022-12-22T19:44:11;3.78;;;1.52;;
61373;SDS011;47242;48.158;-1.586;2022-12-22T19:46:41;7.82;;;2.40;;
61373;SDS011;47242;48.158;-1.586;2022-12-22T19:49:09;5.28;;;1.42;;
61373;SDS011;47242;48.158;-1.586;2022-12-22T19:51:39;8.00;;;1.70;;
61373;SDS011;47242;48.158;-1.586;2022-12-22T19:54:04;6.85;;;2.05;;
61373;SDS011;47242;48.158;-1.586;2022-12-22T19:56:30;7.85;;;2.13;;
61373;SDS011;47242;48.158;-1.586;2022-12-22T19:58:56;7.28;;;1.98;;
61373;SDS011;47242;48.158;-1.586;2022-12-22T20:01:23;3.95;;;1.83;;
61373;SDS011;47242;48.158;-1.586;2022-12-22T20:03:49;10.88;;;2.42;;
61373;SDS011;47242;48.158;-1.586;2022-12-22T20:06:14;5.35;;;1.95;;
61373;SDS011;47242;48.158;-1.586;2022-12-22T20:08:41;5.13;;;2.40;;
61373;SDS011;47242;48.158;-1.586;2022-12-22T20:11:14;4.72;;;1.77;;
61373;SDS011;47242;48.158;-1.586;2022-12-22T20:13:44;8.18;;;2.70;;
61373;SDS011;47242;48.158;-1.586;2022-12-22T20:16:14;10.48;;;2.45;;
61373;SDS011;47242;48.158;-1.586;2022-12-22T20:18:41;8.95;;;3.38;;
61373;SDS011;47242;48.158;-1.586;2022-12-22T20:21:20;5.45;;;2.03;;
61373;SDS011;47242;48.158;-1.586;2022-12-22T20:23:52;11.32;;;2.83;;
61373;SDS011;47242;48.158;-1.586;2022-12-22T20:26:20;9.95;;;3.45;;
61373;SDS011;47242;48.158;-1.586;2022-12-22T20:28:48;9.77;;;2.60;;
61373;SDS011;47242;48.158;-1.586;2022-12-22T20:31:16;6.78;;;2.30;;
61373;SDS011;47242;48.158;-1.586;2022-12-22T20:33:42;8.43;;;2.10;;
61373;SDS011;47242;48.158;-1.586;2022-12-22T20:36:19;6.68;;;1.70;;
61373;SDS011;47242;48.158;-1.586;2022-12-22T20:38:51;12.57;;;2.33;;
61373;SDS011;47242;48.158;-1.586;2022-12-22T20:41:19;15.57;;;2.65;;
61373;SDS011;47242;48.158;-1.586;2022-12-22T20:43:45;9.38;;;2.33;;
61373;SDS011;47242;48.158;-1.586;2022-12-22T20:46:24;9.70;;;2.17;;
61373;SDS011;47242;48.158;-1.586;2022-12-22T20:48:52;3.47;;;1.40;;
61373;SDS011;47242;48.158;-1.586;2022-12-22T20:51:24;7.65;;;2.10;;
61373;SDS011;47242;48.158;-1.586;2022-12-22T20:53:52;15.23;;;2.88;;
61373;SDS011;47242;48.158;-1.586;2022-12-22T20:58:50;10.43;;;2.03;;
61373;SDS011;47242;48.158;-1.586;2022-12-22T21:01:16;5.88;;;2.75;;
61373;SDS011;47242;48.158;-1.586;2022-12-22T21:03:42;13.70;;;2.72;;
61373;SDS011;47242;48.158;-1.586;2022-12-22T21:06:14;9.27;;;2.38;;
61373;SDS011;47242;48.158;-1.586;2022-12-22T21:08:47;8.63;;;2.35;;
61373;SDS011;47242;48.158;-1.586;2022-12-22T21:11:13;12.63;;;2.80;;
61373;SDS011;47242;48.158;-1.586;2022-12-22T21:13:39;7.90;;;2.33;;
61373;SDS011;47242;48.158;-1.586;2022-12-22T21:16:05;8.10;;;2.88;;
61373;SDS011;47242;48.158;-1.586;2022-12-22T21:18:43;8.35;;;2.47;;
61373;SDS011;47242;48.158;-1.586;2022-12-22T21:21:10;11.15;;;2.67;;
61373;SDS011;47242;48.158;-1.586;2022-12-22T21:23:36;11.68;;;3.20;;
61373;SDS011;47242;48.158;-1.586;2022-12-22T21:26:02;9.43;;;2.30;;
61373;SDS011;47242;48.158;-1.586;2022-12-22T21:28:35;9.68;;;2.97;;
61373;SDS011;47242;48.158;-1.586;2022-12-22T21:33:28;10.52;;;2.55;;
61373;SDS011;47242;48.158;-1.586;2022-12-22T21:35:55;6.70;;;2.08;;
61373;SDS011;47242;48.158;-1.586;2022-12-22T21:38:24;13.52;;;3.10;;
61373;SDS011;47242;48.158;-1.586;2022-12-22T21:40:52;17.03;;;2.77;;
61373;SDS011;47242;48.158;-1.586;2022-12-22T21:43:18;10.57;;;2.72;;
61373;SDS011;47242;48.158;-1.586;2022-12-22T21:45:44;6.05;;;2.47;;
61373;SDS011;47242;48.158;-1.586;2022-12-22T21:48:12;11.55;;;2.47;;
61373;SDS011;47242;48.158;-1.586;2022-12-22T21:50:39;13.48;;;2.58;;
61373;SDS011;47242;48.158;-1.586;2022-12-22T21:53:06;13.05;;;2.85;;
61373;SDS011;47242;48.158;-1.586;2022-12-22T21:55:33;12.90;;;2.90;;
61373;SDS011;47242;48.158;-1.586;2022-12-22T21:58:00;16.13;;;3.00;;
61373;SDS011;47242;48.158;-1.586;2022-12-22T22:00:27;16.02;;;3.28;;
61373;SDS011;47242;48.158;-1.586;2022-12-22T22:02:54;15.82;;;3.85;;
61373;SDS011;47242;48.158;-1.586;2022-12-22T22:05:23;13.18;;;3.60;;
61373;SDS011;47242;48.158;-1.586;2022-12-22T22:07:59;15.00;;;3.15;;
61373;SDS011;47242;48.158;-1.586;2022-12-22T22:10:27;13.13;;;2.92;;
61373;SDS011;47242;48.158;-1.586;2022-12-22T22:12:57;14.23;;;3.25;;
61373;SDS011;47242;48.158;-1.586;2022-12-22T22:15:24;14.82;;;2.75;;
61373;SDS011;47242;48.158;-1.586;2022-12-22T22:17:51;8.95;;;2.08;;